Time;durP1;ratioP1;P1;durP2;ratioP2;P2;SDS_P1;SDS_P2;PMS_P1;PMS_P2;Temp;Humidity;BMP_temperature;BMP_pressure;BME280_temperature;BME280_humidity;BME280_pressure;Samples;Min_cycle;Max_cycle;Signal;HPM_P1;HPM_P2
2023/12/23 00:00:37;;;;;;;25.48;18.38;;;7.70;96.20;;;;;;5053779;28;20056;-80
2023/12/23 00:03:03;;;;;;;28.95;19.30;;;7.70;96.20;;;;;;5053334;28;20033;-80
2023/12/23 00:05:29;;;;;;;27.55;18.48;;;7.70;96.30;;;;;;5053976;28;20037;-81
2023/12/23 00:07:54;;;;;;;28.38;19.42;;;7.70;96.20;;;;;;5052958;28;20023;-81
2023/12/23 00:10:20;;;;;;;41.22;26.08;;;7.70;96.20;;;;;;5035248;28;20043;-81
2023/12/23 00:12:46;;;;;;;30.52;20.15;;;7.70;96.10;;;;;;5053367;28;20029;-81
2023/12/23 00:15:11;;;;;;;28.73;18.02;;;7.70;96.10;;;;;;5052951;28;20017;-81
2023/12/23 00:17:37;;;;;;;28.85;19.17;;;7.60;96.10;;;;;;5052406;28;20322;-81
2023/12/23 00:20:03;;;;;;;28.45;18.83;;;7.60;96.10;;;;;;5052910;28;20079;-81
2023/12/23 00:22:29;;;;;;;31.38;19.50;;;7.60;96.10;;;;;;5052978;28;20102;-81
2023/12/23 00:24:54;;;;;;;29.25;17.38;;;7.60;95.90;;;;;;5053724;28;20112;-80
2023/12/23 00:27:20;;;;;;;28.13;19.27;;;7.50;95.90;;;;;;5049259;28;20366;-80
2023/12/23 00:29:46;;;;;;;27.73;19.13;;;7.50;96.00;;;;;;5052329;28;20040;-80
2023/12/23 00:32:11;;;;;;;29.48;18.95;;;7.50;96.00;;;;;;5052776;28;20036;-81
2023/12/23 00:34:37;;;;;;;32.05;20.05;;;7.40;96.00;;;;;;5055889;28;20064;-81
2023/12/23 00:37:03;;;;;;;28.42;19.42;;;7.40;96.00;;;;;;5052918;28;20533;-81
2023/12/23 00:39:28;;;;;;;24.00;15.02;;;7.40;96.00;;;;;;5052031;28;20468;-80
2023/12/23 00:41:54;;;;;;;33.03;20.42;;;7.40;96.00;;;;;;5052593;28;20039;-81
2023/12/23 00:44:20;;;;;;;27.70;19.50;;;7.40;96.10;;;;;;5052473;28;20443;-81
2023/12/23 00:46:45;;;;;;;30.02;20.38;;;7.40;96.00;;;;;;5050574;28;20449;-81
2023/12/23 00:49:11;;;;;;;25.83;17.73;;;7.40;96.00;;;;;;5051624;28;20041;-81
2023/12/23 00:51:37;;;;;;;31.60;20.67;;;7.40;96.00;;;;;;5053257;28;20677;-81
2023/12/23 00:54:02;;;;;;;26.25;16.75;;;7.40;96.10;;;;;;5052426;28;20458;-81
2023/12/23 00:56:28;;;;;;;29.40;18.60;;;7.40;96.00;;;;;;5036462;28;20453;-81
2023/12/23 00:58:54;;;;;;;29.42;19.88;;;7.40;96.00;;;;;;5052701;28;20037;-81
2023/12/23 01:01:19;;;;;;;36.13;22.98;;;7.30;96.10;;;;;;5051905;28;20537;-81
2023/12/23 01:03:45;;;;;;;29.70;19.15;;;7.40;96.00;;;;;;5052653;28;20465;-81
2023/12/23 01:06:11;;;;;;;28.17;18.05;;;7.40;95.90;;;;;;5052352;28;20032;-82
2023/12/23 01:08:37;;;;;;;28.00;18.60;;;7.30;96.00;;;;;;5052444;28;20507;-80
2023/12/23 01:11:02;;;;;;;32.70;19.70;;;7.30;96.00;;;;;;5052428;28;20028;-80
2023/12/23 01:13:28;;;;;;;30.20;19.92;;;7.30;96.00;;;;;;5052797;28;20052;-81
2023/12/23 01:15:54;;;;;;;33.13;20.80;;;7.20;96.00;;;;;;5051659;28;20056;-81
2023/12/23 01:18:20;;;;;;;28.67;18.40;;;7.30;95.90;;;;;;5052661;28;20032;-80
2023/12/23 01:20:46;;;;;;;30.85;19.27;;;7.20;95.80;;;;;;5052514;28;20052;-81
2023/12/23 01:23:12;;;;;;;29.50;19.45;;;7.20;95.90;;;;;;5067028;28;20491;-80
2023/12/23 01:25:37;;;;;;;29.08;19.52;;;7.20;95.80;;;;;;5053673;28;20037;-80
2023/12/23 01:28:06;;;;;;;32.88;20.17;;;7.20;95.80;;;;;;5053939;28;20041;-80
2023/12/23 01:30:35;;;;;;;32.88;21.25;;;7.20;95.80;;;;;;5053054;28;20083;-80
2023/12/23 01:33:01;;;;;;;39.90;21.35;;;7.20;95.80;;;;;;5053722;28;20136;-81
2023/12/23 01:35:27;;;;;;;32.58;20.50;;;7.20;95.80;;;;;;5056110;28;20510;-80
2023/12/23 01:37:53;;;;;;;33.47;20.90;;;7.10;95.90;;;;;;5051889;28;20124;-81
2023/12/23 01:40:19;;;;;;;30.30;21.38;;;7.10;95.80;;;;;;5052009;28;20017;-80
2023/12/23 01:42:45;;;;;;;44.63;28.13;;;7.10;95.80;;;;;;5034569;28;20477;-81
2023/12/23 01:45:10;;;;;;;33.40;20.52;;;7.10;95.80;;;;;;5051757;28;20033;-80
2023/12/23 01:47:40;;;;;;;37.28;23.25;;;7.10;95.80;;;;;;5052123;28;20087;-80
2023/12/23 01:50:09;;;;;;;30.33;19.25;;;7.10;95.80;;;;;;5044413;28;20480;-80
2023/12/23 01:52:36;;;;;;;29.35;19.55;;;7.10;95.70;;;;;;5051689;28;20079;-82
2023/12/23 01:55:03;;;;;;;29.98;20.25;;;7.10;95.60;;;;;;5051919;28;20033;-82
2023/12/23 01:57:29;;;;;;;33.53;21.08;;;7.10;95.70;;;;;;5053220;28;20025;-82
2023/12/23 01:59:55;;;;;;;32.35;20.67;;;7.10;95.80;;;;;;5055651;28;20036;-81
2023/12/23 02:02:21;;;;;;;32.03;22.02;;;7.10;95.70;;;;;;5051364;28;20040;-81
2023/12/23 02:04:47;;;;;;;29.02;18.38;;;7.10;95.70;;;;;;5051864;28;20013;-81
2023/12/23 02:07:13;;;;;;;30.40;20.70;;;7.10;95.60;;;;;;5061260;28;20130;-80
2023/12/23 02:09:39;;;;;;;39.35;26.65;;;7.10;95.80;;;;;;5054566;28;20044;-81
2023/12/23 02:12:26;;;;;;;30.25;20.08;;;7.00;95.60;;;;;;5050098;28;20044;-80
2023/12/23 02:15:06;;;;;;;33.40;22.55;;;7.10;95.70;;;;;;5061189;28;20090;-80
2023/12/23 02:17:32;;;;;;;;;;;7.10;95.60;;;;;;5056615;28;20029;-81
2023/12/23 02:19:58;;;;;;;32.83;20.98;;;7.00;95.60;;;;;;5053659;28;19916;-81
2023/12/23 02:22:23;;;;;;;28.52;20.05;;;7.00;95.70;;;;;;5062618;28;20033;-81
2023/12/23 02:24:49;;;;;;;30.00;20.30;;;7.00;95.80;;;;;;5060079;28;20041;-81
2023/12/23 02:27:21;;;;;;;32.65;19.77;;;7.00;95.80;;;;;;5055552;28;20357;-81
2023/12/23 02:29:48;;;;;;;30.67;20.80;;;7.00;95.80;;;;;;5060390;28;20029;-80
2023/12/23 02:32:15;;;;;;;28.92;20.10;;;7.00;95.80;;;;;;5038859;28;20115;-81
2023/12/23 02:34:42;;;;;;;27.85;18.30;;;7.00;95.80;;;;;;5060131;28;20017;-80
2023/12/23 02:37:08;;;;;;;30.13;21.27;;;7.00;95.70;;;;;;5040887;28;20068;-80
2023/12/23 02:39:34;;;;;;;29.05;19.77;;;7.00;95.80;;;;;;5054139;28;20060;-81
2023/12/23 02:42:00;;;;;;;30.65;20.20;;;7.00;95.80;;;;;;5054854;28;20041;-81
2023/12/23 02:44:25;;;;;;;33.30;20.27;;;7.00;95.70;;;;;;5069957;28;20536;-81
2023/12/23 02:46:51;;;;;;;30.98;20.02;;;7.00;95.80;;;;;;5055060;28;20091;-81
2023/12/23 02:49:16;;;;;;;34.10;21.30;;;7.00;95.80;;;;;;5054476;28;20024;-80
2023/12/23 02:51:42;;;;;;;29.67;19.02;;;7.00;95.60;;;;;;5054792;28;20033;-81
2023/12/23 02:54:08;;;;;;;30.65;20.80;;;7.00;95.80;;;;;;5068716;28;20525;-81
2023/12/23 02:56:33;;;;;;;31.17;20.35;;;7.00;95.80;;;;;;5055604;28;20422;-80
2023/12/23 02:58:59;;;;;;;32.55;19.73;;;7.00;95.70;;;;;;5054416;28;20480;-81
2023/12/23 03:01:25;;;;;;;33.08;21.88;;;7.00;95.80;;;;;;5054479;28;20041;-80
2023/12/23 03:03:50;;;;;;;32.08;22.73;;;7.00;95.90;;;;;;5058148;28;20454;-81
2023/12/23 03:06:16;;;;;;;30.85;20.70;;;7.00;95.90;;;;;;5069692;28;20036;-80
2023/12/23 03:08:42;;;;;;;36.30;23.25;;;7.00;95.90;;;;;;5054833;28;20032;-80
2023/12/23 03:11:08;;;;;;;39.42;26.17;;;7.00;95.90;;;;;;5054101;28;20078;-80
2023/12/23 03:13:34;;;;;;;32.90;21.42;;;7.00;95.80;;;;;;5053852;28;20064;-80
2023/12/23 03:15:59;;;;;;;30.42;19.98;;;6.90;95.90;;;;;;5054585;28;20481;-80
2023/12/23 03:18:25;;;;;;;34.10;21.50;;;6.90;95.90;;;;;;5059688;28;20028;-83
2023/12/23 03:20:51;;;;;;;31.20;20.73;;;6.90;95.90;;;;;;5057385;28;20025;-84
2023/12/23 03:23:17;;;;;;;33.65;21.17;;;6.90;96.10;;;;;;5054857;28;20029;-83
2023/12/23 03:25:43;;;;;;;34.78;22.42;;;6.90;96.10;;;;;;5062690;28;20059;-84
2023/12/23 03:28:09;;;;;;;30.98;20.45;;;7.00;96.10;;;;;;5062436;28;20027;-84
2023/12/23 03:30:34;;;;;;;33.72;23.05;;;6.90;96.10;;;;;;5057980;28;20369;-83
2023/12/23 03:33:00;;;;;;;32.85;20.25;;;6.90;96.20;;;;;;5054015;28;20377;-83
2023/12/23 03:35:26;;;;;;;30.90;21.25;;;6.90;96.10;;;;;;5065132;28;20036;-82
2023/12/23 03:37:52;;;;;;;27.10;17.05;;;6.90;96.20;;;;;;5054409;28;20067;-83
2023/12/23 03:40:17;;;;;;;34.10;22.52;;;6.90;96.20;;;;;;5056699;28;20144;-83
2023/12/23 03:42:43;;;;;;;31.33;18.52;;;6.90;96.20;;;;;;5040687;28;20719;-84
2023/12/23 03:45:09;;;;;;;31.30;20.70;;;6.90;96.20;;;;;;5062997;28;20036;-84
2023/12/23 03:47:35;;;;;;;36.40;22.95;;;6.90;96.20;;;;;;5059728;28;20029;-84
2023/12/23 03:50:01;;;;;;;29.92;19.50;;;6.80;96.20;;;;;;5053114;28;20399;-84
2023/12/23 03:52:27;;;;;;;32.10;20.20;;;6.80;96.20;;;;;;5060354;28;20036;-84
2023/12/23 03:54:53;;;;;;;29.23;20.45;;;6.90;96.30;;;;;;5065223;28;20060;-84
2023/12/23 03:57:19;;;;;;;32.47;21.02;;;6.90;96.20;;;;;;5054005;28;20055;-84
2023/12/23 03:59:44;;;;;;;27.42;19.05;;;7.00;96.20;;;;;;5054770;28;20051;-84
2023/12/23 04:02:11;;;;;;;32.70;20.17;;;6.90;96.00;;;;;;5053817;28;20361;-83
2023/12/23 04:04:40;;;;;;;32.25;21.55;;;6.90;96.10;;;;;;5054822;28;20043;-83
2023/12/23 04:07:05;;;;;;;26.08;18.70;;;6.90;96.10;;;;;;5037029;28;20021;-84
2023/12/23 04:09:32;;;;;;;27.40;18.95;;;6.90;96.10;;;;;;5054612;28;20025;-85
2023/12/23 04:11:58;;;;;;;31.80;21.17;;;6.80;96.20;;;;;;5052955;28;20079;-85
2023/12/23 04:14:23;;;;;;;32.00;20.05;;;6.80;96.30;;;;;;5057677;28;20044;-84
2023/12/23 04:16:49;;;;;;;29.88;18.90;;;6.90;96.20;;;;;;5046901;28;20111;-84
2023/12/23 04:19:15;;;;;;;27.95;17.48;;;6.90;96.20;;;;;;5053930;28;20104;-84
2023/12/23 04:21:40;;;;;;;33.50;21.83;;;6.90;96.30;;;;;;5059533;28;20028;-85
2023/12/23 04:24:06;;;;;;;31.23;20.75;;;6.90;96.30;;;;;;5053635;28;20392;-85
2023/12/23 04:26:33;;;;;;;31.20;20.35;;;6.90;96.30;;;;;;5053629;28;20116;-85
2023/12/23 04:28:59;;;;;;;32.78;21.63;;;6.90;96.30;;;;;;5058731;28;20115;-84
2023/12/23 04:31:25;;;;;;;27.17;17.70;;;7.00;96.20;;;;;;5056835;28;20048;-85
2023/12/23 04:33:51;;;;;;;30.52;19.73;;;6.90;96.10;;;;;;5053195;28;20425;-84
2023/12/23 04:36:22;;;;;;;30.10;18.90;;;6.90;96.20;;;;;;5061097;28;20105;-84
2023/12/23 04:38:49;;;;;;;28.10;19.38;;;6.90;96.20;;;;;;5057093;28;20414;-85
2023/12/23 04:41:14;;;;;;;36.35;23.95;;;6.90;96.10;;;;;;5059780;28;20032;-83
2023/12/23 04:43:40;;;;;;;31.25;19.98;;;6.90;96.00;;;;;;5052760;28;20079;-84
2023/12/23 04:46:06;;;;;;;33.03;20.38;;;6.90;96.00;;;;;;5057787;28;20031;-84
2023/12/23 04:48:32;;;;;;;28.00;16.40;;;6.90;96.30;;;;;;5041389;28;20064;-84
2023/12/23 04:50:58;;;;;;;42.50;29.20;;;6.90;96.00;;;;;;5053263;28;20032;-84
2023/12/23 04:53:24;;;;;;;31.02;19.65;;;6.90;96.10;;;;;;5053123;28;20054;-84
2023/12/23 04:55:50;;;;;;;57.67;36.58;;;6.80;96.10;;;;;;5053557;28;20376;-84
2023/12/23 04:58:16;;;;;;;60.45;36.20;;;6.70;96.80;;;;;;5052299;28;20065;-84
2023/12/23 05:00:41;;;;;;;31.17;20.55;;;6.80;96.80;;;;;;5063378;28;20040;-84
2023/12/23 05:03:07;;;;;;;43.47;30.08;;;6.80;97.00;;;;;;5055103;28;20029;-84
2023/12/23 05:05:33;;;;;;;65.35;42.95;;;6.80;97.00;;;;;;5054973;28;20037;-84
2023/12/23 05:07:59;;;;;;;38.05;22.60;;;6.80;97.20;;;;;;5052319;28;20120;-83
2023/12/23 05:10:24;;;;;;;26.15;18.15;;;6.80;97.20;;;;;;5052705;28;20053;-84
2023/12/23 05:12:50;;;;;;;32.35;21.95;;;6.90;97.10;;;;;;5052198;28;20033;-84
2023/12/23 05:15:16;;;;;;;32.25;20.98;;;6.90;97.20;;;;;;5056024;28;20040;-84
2023/12/23 05:17:41;;;;;;;45.50;29.55;;;6.90;97.20;;;;;;5052257;28;20066;-84
2023/12/23 05:20:08;;;;;;;29.00;20.73;;;7.00;97.20;;;;;;5052837;28;20021;-84
2023/12/23 05:22:34;;;;;;;33.95;22.08;;;6.90;97.30;;;;;;5044032;28;20029;-84
2023/12/23 05:24:59;;;;;;;32.17;20.23;;;6.90;97.30;;;;;;5059478;28;20036;-84
2023/12/23 05:27:25;;;;;;;30.48;19.92;;;6.90;97.30;;;;;;5052418;28;20025;-83
2023/12/23 05:29:51;;;;;;;38.55;24.10;;;7.00;97.40;;;;;;5053203;28;20025;-83
2023/12/23 05:32:16;;;;;;;32.85;20.90;;;7.00;97.30;;;;;;5050989;28;20029;-84
2023/12/23 05:34:42;;;;;;;34.70;22.92;;;6.90;97.30;;;;;;5052988;28;20036;-84
2023/12/23 05:37:07;;;;;;;30.75;19.52;;;7.00;97.30;;;;;;5051132;28;20047;-84
2023/12/23 05:39:33;;;;;;;29.50;19.58;;;7.00;97.30;;;;;;5052066;28;20086;-84
2023/12/23 05:41:59;;;;;;;30.90;20.70;;;7.00;97.40;;;;;;5061274;28;20479;-84
2023/12/23 05:44:25;;;;;;;29.55;19.25;;;7.10;97.40;;;;;;5051946;28;20357;-85
2023/12/23 05:46:51;;;;;;;29.85;19.65;;;7.10;97.40;;;;;;5060837;28;20048;-86
2023/12/23 05:49:16;;;;;;;32.17;18.42;;;7.10;97.50;;;;;;5052708;28;20040;-87
2023/12/23 05:51:42;;;;;;;31.20;20.40;;;7.10;97.60;;;;;;5055268;28;20029;-87
2023/12/23 05:54:08;;;;;;;26.58;18.42;;;7.10;97.60;;;;;;5053253;28;20028;-86
2023/12/23 05:56:33;;;;;;;33.38;20.67;;;7.20;97.60;;;;;;5055743;28;20055;-87
2023/12/23 05:58:59;;;;;;;32.75;19.92;;;7.20;97.60;;;;;;5042198;28;20119;-85
2023/12/23 06:01:24;;;;;;;24.20;17.00;;;7.20;97.60;;;;;;5067151;28;20036;-85
2023/12/23 06:03:50;;;;;;;33.17;21.00;;;7.20;97.60;;;;;;5060430;28;20075;-84
2023/12/23 06:06:16;;;;;;;31.48;20.30;;;7.20;97.70;;;;;;5056124;28;20033;-85
2023/12/23 06:08:41;;;;;;;33.08;20.88;;;7.20;97.80;;;;;;5057611;28;20025;-85
2023/12/23 06:11:07;;;;;;;32.80;21.10;;;7.20;97.80;;;;;;5039182;28;20037;-84
2023/12/23 06:13:33;;;;;;;32.50;20.33;;;7.20;97.70;;;;;;5055658;28;20033;-84
2023/12/23 06:16:08;;;;;;;28.30;19.23;;;7.20;97.70;;;;;;5055654;28;20422;-82
2023/12/23 06:18:34;;;;;;;35.20;21.38;;;7.20;97.80;;;;;;5052874;28;20512;-81
2023/12/23 06:21:00;;;;;;;29.33;19.65;;;7.30;97.80;;;;;;5052517;28;20069;-81
2023/12/23 06:23:26;;;;;;;33.58;22.10;;;7.30;97.70;;;;;;5049762;28;20025;-81
2023/12/23 06:25:52;;;;;;;38.53;20.33;;;7.20;97.70;;;;;;5054199;28;20025;-81
2023/12/23 06:28:17;;;;;;;28.25;19.27;;;7.30;97.70;;;;;;5050468;28;20029;-83
2023/12/23 06:30:43;;;;;;;31.38;18.60;;;7.20;97.70;;;;;;5054644;28;20032;-83
2023/12/23 06:33:09;;;;;;;28.70;19.80;;;7.30;97.60;;;;;;5036495;28;20025;-83
2023/12/23 06:35:34;;;;;;;26.38;18.63;;;7.30;97.60;;;;;;5053000;28;20033;-84
2023/12/23 06:38:00;;;;;;;29.48;19.55;;;7.30;97.60;;;;;;5032831;28;20045;-83
2023/12/23 06:40:28;;;;;;;31.38;19.80;;;7.30;97.40;;;;;;5054877;28;20144;-84
2023/12/23 06:42:54;;;;;;;31.85;21.08;;;7.30;97.30;;;;;;5047605;28;20044;-83
2023/12/23 06:45:20;;;;;;;24.95;17.20;;;7.20;97.20;;;;;;5054137;28;20040;-83
2023/12/23 06:47:46;;;;;;;27.92;18.77;;;7.20;97.20;;;;;;5037653;28;20040;-83
2023/12/23 06:50:12;;;;;;;31.05;19.52;;;7.20;97.30;;;;;;5055218;28;20033;-83
2023/12/23 06:52:38;;;;;;;26.33;18.02;;;7.20;97.30;;;;;;5055686;28;20480;-83
2023/12/23 06:55:04;;;;;;;27.85;18.85;;;7.20;97.20;;;;;;5055576;28;20025;-84
2023/12/23 06:57:29;;;;;;;26.80;18.25;;;7.20;97.10;;;;;;5056150;28;20018;-83
2023/12/23 06:59:58;;;;;;;30.90;18.23;;;7.20;97.10;;;;;;5061967;28;20055;-83
2023/12/23 07:02:24;;;;;;;29.77;19.80;;;7.20;97.10;;;;;;5065340;28;20115;-85
2023/12/23 07:04:50;;;;;;;30.02;19.50;;;7.20;97.00;;;;;;5059721;28;20112;-85
2023/12/23 07:07:16;;;;;;;33.85;23.38;;;7.20;97.10;;;;;;5054764;28;20093;-85
2023/12/23 07:09:41;;;;;;;26.38;16.95;;;7.10;97.00;;;;;;5057440;28;20419;-86
2023/12/23 07:12:08;;;;;;;33.22;20.58;;;7.10;97.00;;;;;;5059545;28;20029;-85
2023/12/23 07:14:34;;;;;;;29.88;19.75;;;7.10;97.00;;;;;;5052418;28;20534;-85
2023/12/23 07:16:59;;;;;;;32.55;20.45;;;7.10;96.90;;;;;;5050496;28;20037;-86
2023/12/23 07:19:25;;;;;;;25.55;17.63;;;7.10;97.00;;;;;;5052132;28;20037;-86
2023/12/23 07:21:53;;;;;;;29.55;20.08;;;7.00;96.80;;;;;;5036002;28;20055;-86
2023/12/23 07:24:21;;;;;;;31.40;20.88;;;7.00;96.90;;;;;;5034672;28;21677;-85
2023/12/23 07:26:47;;;;;;;27.27;18.60;;;7.00;96.90;;;;;;5054329;28;20025;-82
2023/12/23 07:29:13;;;;;;;31.05;20.73;;;6.90;96.80;;;;;;5054159;28;20035;-84
2023/12/23 07:31:38;;;;;;;29.55;19.33;;;6.90;96.80;;;;;;5059531;28;20032;-86
2023/12/23 07:34:04;;;;;;;29.27;19.35;;;6.90;96.90;;;;;;5060248;28;20108;-84
2023/12/23 07:36:30;;;;;;;28.55;19.27;;;6.90;96.90;;;;;;5037089;28;20493;-85
2023/12/23 07:38:56;;;;;;;29.88;20.05;;;7.00;96.80;;;;;;5055309;28;20017;-86
2023/12/23 07:41:21;;;;;;;28.98;19.20;;;7.00;96.80;;;;;;5055917;28;20024;-89
2023/12/23 07:43:47;;;;;;;29.95;18.95;;;7.00;97.00;;;;;;5055980;28;20032;-87
2023/12/23 07:46:13;;;;;;;30.98;20.50;;;7.00;96.80;;;;;;5057450;28;20071;-85
2023/12/23 07:48:38;;;;;;;32.58;20.70;;;7.00;96.80;;;;;;5054969;28;20033;-84
2023/12/23 07:51:10;;;;;;;29.92;20.33;;;7.00;96.80;;;;;;5054276;28;20032;-83
2023/12/23 07:53:36;;;;;;;30.63;19.90;;;7.00;96.90;;;;;;5054310;28;20041;-83
2023/12/23 07:56:02;;;;;;;35.30;22.85;;;7.00;96.80;;;;;;5054722;28;20037;-83
2023/12/23 07:58:27;;;;;;;28.75;18.77;;;7.00;96.70;;;;;;5064496;28;20515;-82
2023/12/23 08:00:54;;;;;;;29.60;17.83;;;7.00;96.90;;;;;;5071956;28;20472;-90
2023/12/23 08:03:19;;;;;;;30.38;19.48;;;7.00;96.80;;;;;;5056833;28;20159;-93
2023/12/23 08:05:45;;;;;;;29.35;19.60;;;7.10;96.90;;;;;;5064085;28;20488;-90
2023/12/23 08:08:11;;;;;;;28.63;18.67;;;7.10;96.90;;;;;;5055436;28;20036;-87
2023/12/23 08:10:40;;;;;;;26.58;17.98;;;7.20;96.90;;;;;;5061816;28;20035;-91
2023/12/23 08:13:08;;;;;;;31.67;19.90;;;7.20;96.90;;;;;;5062404;28;20462;-82
2023/12/23 08:15:34;;;;;;;27.33;18.48;;;7.30;96.90;;;;;;5053500;28;20021;-82
2023/12/23 08:18:00;;;;;;;28.80;18.90;;;7.30;96.80;;;;;;5053469;28;20091;-84
2023/12/23 08:20:26;;;;;;;45.45;31.08;;;7.30;96.80;;;;;;5054023;28;20112;-83
2023/12/23 08:22:51;;;;;;;31.08;21.52;;;7.30;96.80;;;;;;5054433;28;20047;-84
2023/12/23 08:25:18;;;;;;;42.63;26.60;;;7.20;96.80;;;;;;5058334;28;20559;-82
2023/12/23 08:27:44;;;;;;;27.77;18.05;;;7.20;96.80;;;;;;5072750;28;20107;-83
2023/12/23 08:30:10;;;;;;;32.95;20.73;;;7.20;96.70;;;;;;5053731;28;20059;-83
2023/12/23 08:32:36;;;;;;;30.42;19.05;;;7.20;96.80;;;;;;5057047;28;20024;-83
2023/12/23 08:35:01;;;;;;;33.75;22.92;;;7.20;96.80;;;;;;5055450;28;20029;-84
2023/12/23 08:37:27;;;;;;;34.03;20.73;;;7.20;96.80;;;;;;5055643;28;20048;-84
2023/12/23 08:39:54;;;;;;;29.90;20.35;;;7.30;96.80;;;;;;5058939;28;20058;-84
2023/12/23 08:42:20;;;;;;;63.25;41.60;;;7.30;97.00;;;;;;5073064;28;20430;-84
2023/12/23 08:44:47;;;;;;;49.08;32.55;;;7.30;96.60;;;;;;5060082;28;20059;-84
2023/12/23 08:47:13;;;;;;;29.58;19.88;;;7.20;96.60;;;;;;5057571;28;20032;-84
2023/12/23 08:49:39;;;;;;;27.58;19.20;;;7.20;96.70;;;;;;5053058;28;20576;-84
2023/12/23 08:52:08;;;;;;;31.80;19.85;;;7.30;96.70;;;;;;5037870;28;20101;-84
2023/12/23 08:54:33;;;;;;;38.83;24.88;;;7.40;96.80;;;;;;5051208;28;20115;-83
2023/12/23 08:56:59;;;;;;;27.45;19.45;;;7.30;96.60;;;;;;5053245;28;20086;-84
2023/12/23 08:59:25;;;;;;;48.88;34.78;;;7.30;96.60;;;;;;5051010;28;20043;-84
2023/12/23 09:01:51;;;;;;;25.33;17.77;;;7.30;96.40;;;;;;5052400;28;20029;-84
2023/12/23 09:04:18;;;;;;;29.88;20.67;;;7.30;96.50;;;;;;5052851;28;20035;-84
2023/12/23 09:06:44;;;;;;;34.75;25.08;;;7.40;96.60;;;;;;5052129;28;21258;-85
2023/12/23 09:09:12;;;;;;;28.15;18.80;;;7.40;96.60;;;;;;5050850;28;20122;-84
2023/12/23 09:11:43;;;;;;;42.03;28.85;;;7.50;96.60;;;;;;5052053;28;20741;-85
2023/12/23 09:14:09;;;;;;;23.63;16.90;;;7.50;96.60;;;;;;5052565;28;20029;-85
2023/12/23 09:16:35;;;;;;;28.98;18.30;;;7.60;96.60;;;;;;5052382;28;20056;-84
2023/12/23 09:19:01;;;;;;;24.38;15.85;;;7.60;96.60;;;;;;5052773;28;20037;-84
2023/12/23 09:21:26;;;;;;;27.25;17.88;;;7.70;96.40;;;;;;5052469;28;20446;-84
2023/12/23 09:23:52;;;;;;;27.27;18.33;;;7.70;96.40;;;;;;5051393;28;20078;-86
2023/12/23 09:26:18;;;;;;;26.63;17.20;;;7.80;96.30;;;;;;5052667;28;20033;-85
2023/12/23 09:28:44;;;;;;;24.83;17.42;;;7.80;96.30;;;;;;5054107;28;20028;-84
2023/12/23 09:31:12;;;;;;;39.92;26.65;;;7.90;96.40;;;;;;5056558;28;20369;-84
2023/12/23 09:33:39;;;;;;;25.98;16.67;;;8.00;96.30;;;;;;5056031;28;20112;-85
2023/12/23 09:36:05;;;;;;;54.25;36.15;;;8.00;96.20;;;;;;5056161;28;20114;-85
2023/12/23 09:38:31;;;;;;;26.70;17.65;;;8.10;96.00;;;;;;5056637;28;20099;-85
2023/12/23 09:40:57;;;;;;;25.17;16.70;;;8.10;96.00;;;;;;5055537;28;20472;-83
2023/12/23 09:43:23;;;;;;;26.20;16.73;;;8.20;96.10;;;;;;5055339;28;20386;-83
2023/12/23 09:45:54;;;;;;;25.15;17.08;;;8.30;96.10;;;;;;5055092;28;20037;-83
2023/12/23 09:48:23;;;;;;;20.20;14.55;;;8.50;96.10;;;;;;5055504;28;20037;-84
2023/12/23 09:50:49;;;;;;;23.10;14.25;;;8.70;96.00;;;;;;5054876;28;20023;-84
2023/12/23 09:53:16;;;;;;;22.75;13.43;;;8.80;95.90;;;;;;5052320;28;20060;-82
2023/12/23 09:55:43;;;;;;;19.08;13.73;;;9.00;95.60;;;;;;5053848;28;20500;-82
2023/12/23 09:58:08;;;;;;;17.33;12.65;;;9.10;95.20;;;;;;5054641;28;20025;-83
2023/12/23 10:00:34;;;;;;;17.00;11.98;;;9.20;95.00;;;;;;5053032;28;20495;-84
2023/12/23 10:03:00;;;;;;;32.75;22.40;;;9.30;94.80;;;;;;5061975;28;20130;-82
2023/12/23 10:05:29;;;;;;;44.80;25.95;;;9.40;94.20;;;;;;5056919;28;20025;-82
2023/12/23 10:07:59;;;;;;;17.42;11.10;;;9.30;94.20;;;;;;5059783;28;20033;-83
2023/12/23 10:10:25;;;;;;;11.83;8.77;;;9.40;94.50;;;;;;5056927;28;20133;-85
2023/12/23 10:12:52;;;;;;;15.45;11.02;;;9.50;96.40;;;;;;5060445;28;20066;-84
2023/12/23 10:15:18;;;;;;;14.90;11.30;;;9.70;95.20;;;;;;5058357;28;20033;-84
2023/12/23 10:17:43;;;;;;;16.63;11.15;;;9.90;95.40;;;;;;5061529;28;20039;-85
2023/12/23 10:20:15;;;;;;;19.00;11.60;;;10.10;94.90;;;;;;5055407;28;20761;-85
2023/12/23 10:22:45;;;;;;;24.77;17.25;;;10.20;94.80;;;;;;5040612;28;20089;-85
2023/12/23 10:25:14;;;;;;;18.35;12.80;;;10.30;94.30;;;;;;5055485;28;20095;-85
2023/12/23 10:27:41;;;;;;;24.50;16.42;;;10.40;94.40;;;;;;5055540;28;20029;-84
2023/12/23 10:30:11;;;;;;;14.73;10.90;;;10.60;94.30;;;;;;5055007;28;20028;-85
2023/12/23 10:32:38;;;;;;;17.55;12.48;;;10.80;93.70;;;;;;5055358;28;20480;-84
2023/12/23 10:35:13;;;;;;;35.20;24.95;;;11.00;94.10;;;;;;5054359;28;20037;-84
2023/12/23 10:37:40;;;;;;;18.73;12.32;;;11.20;93.00;;;;;;5056225;28;20504;-84
2023/12/23 10:40:15;;;;;;;18.17;12.57;;;11.40;93.70;;;;;;5055273;28;20033;-83
2023/12/23 10:42:42;;;;;;;19.73;13.30;;;11.70;93.50;;;;;;5050447;28;20029;-85
2023/12/23 10:45:08;;;;;;;26.92;18.85;;;11.90;93.50;;;;;;5063226;28;20048;-85
2023/12/23 10:47:35;;;;;;;27.35;19.15;;;12.20;92.70;;;;;;5056181;28;20127;-85
2023/12/23 10:50:01;;;;;;;19.63;13.32;;;12.10;91.50;;;;;;5056781;28;20091;-85
2023/12/23 10:52:28;;;;;;;18.30;12.50;;;12.20;92.40;;;;;;5062631;28;20115;-85
2023/12/23 10:54:54;;;;;;;28.33;19.75;;;12.40;92.80;;;;;;5050696;28;20021;-84
2023/12/23 10:57:23;;;;;;;14.38;11.02;;;12.60;91.70;;;;;;5052865;28;20425;-85
2023/12/23 10:59:49;;;;;;;15.63;11.05;;;12.70;91.80;;;;;;5062245;28;20056;-85
2023/12/23 11:02:23;;;;;;;15.48;11.45;;;12.80;92.00;;;;;;5071461;28;20053;-85
2023/12/23 11:04:51;;;;;;;16.95;11.80;;;13.10;92.00;;;;;;5060096;28;20056;-85
2023/12/23 11:07:24;;;;;;;17.08;11.55;;;13.30;91.60;;;;;;5059948;28;20051;-84
2023/12/23 11:09:58;;;;;;;16.75;12.10;;;13.50;91.50;;;;;;5034508;28;20059;-85
2023/12/23 11:12:24;;;;;;;15.70;11.40;;;13.80;91.20;;;;;;5055075;28;20366;-84
2023/12/23 11:14:50;;;;;;;16.55;11.05;;;13.90;90.70;;;;;;5054994;28;20028;-84
2023/12/23 11:17:29;;;;;;;16.67;10.48;;;14.10;90.40;;;;;;5054913;28;20059;-83
2023/12/23 11:19:59;;;;;;;17.57;11.97;;;14.30;90.20;;;;;;5055207;28;20021;-85
2023/12/23 11:22:38;;;;;;;17.27;12.55;;;14.50;89.60;;;;;;5054800;28;20485;-84
2023/12/23 11:25:24;;;;;;;16.42;12.38;;;14.70;88.90;;;;;;5054440;28;20108;-84
2023/12/23 11:27:50;;;;;;;16.73;12.95;;;14.80;88.80;;;;;;5053697;28;20029;-84
2023/12/23 11:30:15;;;;;;;18.60;14.18;;;15.00;88.80;;;;;;5053914;28;20055;-84
2023/12/23 11:32:43;;;;;;;18.65;13.98;;;15.20;88.40;;;;;;5058033;28;20139;-84
2023/12/23 11:35:13;;;;;;;20.92;14.48;;;15.40;87.80;;;;;;5054017;28;20028;-84
2023/12/23 11:37:53;;;;;;;18.92;14.23;;;15.70;87.10;;;;;;5054055;28;20040;-84
2023/12/23 11:40:20;;;;;;;22.83;15.77;;;15.90;85.90;;;;;;5053412;28;20021;-85
2023/12/23 11:42:47;;;;;;;22.77;16.13;;;16.20;85.90;;;;;;5053669;28;20549;-84
2023/12/23 11:45:14;;;;;;;23.98;17.55;;;16.80;85.00;;;;;;5049507;28;20047;-86
2023/12/23 11:47:41;;;;;;;22.33;16.58;;;17.70;82.90;;;;;;5054481;28;20072;-86
2023/12/23 11:50:08;;;;;;;22.48;17.33;;;18.70;80.20;;;;;;5059755;28;20117;-85
2023/12/23 11:52:36;;;;;;;23.77;16.70;;;19.70;77.50;;;;;;5055077;28;20043;-85
2023/12/23 11:55:06;;;;;;;21.85;17.17;;;20.40;74.80;;;;;;5053715;28;20021;-86
2023/12/23 11:57:32;;;;;;;21.98;17.02;;;21.10;71.90;;;;;;5057393;28;20029;-86
2023/12/23 11:59:59;;;;;;;21.58;16.55;;;21.60;70.30;;;;;;5064417;28;20029;-87
2023/12/23 12:02:25;;;;;;;24.02;17.25;;;22.20;68.70;;;;;;5150797;22;20539;-82
2023/12/23 12:04:52;;;;;;;26.08;18.08;;;22.60;66.80;;;;;;5044036;28;20033;-82
2023/12/23 12:07:24;;;;;;;22.83;16.42;;;22.80;65.80;;;;;;5053943;28;20054;-83
2023/12/23 12:09:50;;;;;;;22.02;17.00;;;22.60;63.40;;;;;;5051475;28;20108;-83
2023/12/23 12:12:17;;;;;;;21.70;17.13;;;22.40;64.50;;;;;;5055876;28;20027;-83
2023/12/23 12:14:43;;;;;;;24.05;18.45;;;22.30;63.70;;;;;;5049290;28;20124;-83
2023/12/23 12:17:09;;;;;;;24.67;18.40;;;22.20;63.60;;;;;;5051568;28;20112;-84
2023/12/23 12:19:38;;;;;;;24.73;18.15;;;22.20;63.90;;;;;;5057260;28;20029;-83
2023/12/23 12:22:04;;;;;;;25.63;18.92;;;22.10;62.50;;;;;;5052361;28;20029;-83
2023/12/23 12:24:30;;;;;;;23.08;18.23;;;22.10;63.30;;;;;;5048376;28;20104;-83
2023/12/23 12:26:57;;;;;;;27.05;20.08;;;22.20;63.40;;;;;;5031086;28;20028;-83
2023/12/23 12:29:23;;;;;;;23.73;18.17;;;22.30;62.50;;;;;;5060495;28;20020;-83
2023/12/23 12:31:55;;;;;;;24.67;19.35;;;22.30;63.00;;;;;;5072329;28;20548;-83